sensor_id;sensor_type;location;lat;lon;timestamp;temperature;humidity
32400;DHT22;45045;45.440;9.178;2022-10-31T00:03:47;22.90;89.10
32400;DHT22;45045;45.440;9.178;2022-10-31T00:06:13;22.90;89.10
32400;DHT22;45045;45.440;9.178;2022-10-31T00:08:39;22.80;89.10
32400;DHT22;45045;45.440;9.178;2022-10-31T00:11:09;22.80;89.10
32400;DHT22;45045;45.440;9.178;2022-10-31T00:13:35;22.80;89.90
32400;DHT22;45045;45.440;9.178;2022-10-31T00:16:00;22.80;89.20
32400;DHT22;45045;45.440;9.178;2022-10-31T00:18:26;22.80;89.30
32400;DHT22;45045;45.440;9.178;2022-10-31T00:21:01;22.80;89.40
32400;DHT22;45045;45.440;9.178;2022-10-31T00:23:27;22.80;89.40
32400;DHT22;45045;45.440;9.178;2022-10-31T00:25:53;22.80;89.40
32400;DHT22;45045;45.440;9.178;2022-10-31T00:28:18;22.80;89.50
32400;DHT22;45045;45.440;9.178;2022-10-31T00:30:44;22.70;89.50
32400;DHT22;45045;45.440;9.178;2022-10-31T00:33:09;22.70;89.60
32400;DHT22;45045;45.440;9.178;2022-10-31T00:35:35;22.70;89.60
32400;DHT22;45045;45.440;9.178;2022-10-31T00:38:01;22.70;89.70
32400;DHT22;45045;45.440;9.178;2022-10-31T00:40:26;22.70;89.70
32400;DHT22;45045;45.440;9.178;2022-10-31T00:42:52;22.70;89.90
32400;DHT22;45045;45.440;9.178;2022-10-31T00:45:17;22.70;89.90
32400;DHT22;45045;45.440;9.178;2022-10-31T00:47:43;22.70;90.00
32400;DHT22;45045;45.440;9.178;2022-10-31T00:50:09;22.60;89.90
32400;DHT22;45045;45.440;9.178;2022-10-31T00:52:34;22.60;90.00
32400;DHT22;45045;45.440;9.178;2022-10-31T00:55:00;22.60;90.00
32400;DHT22;45045;45.440;9.178;2022-10-31T00:57:26;22.60;90.00
32400;DHT22;45045;45.440;9.178;2022-10-31T00:59:51;22.60;90.00
32400;DHT22;45045;45.440;9.178;2022-10-31T01:02:17;22.60;90.00
32400;DHT22;45045;45.440;9.178;2022-10-31T01:04:43;22.60;90.00
32400;DHT22;45045;45.440;9.178;2022-10-31T01:07:09;22.60;90.00
32400;DHT22;45045;45.440;9.178;2022-10-31T01:09:37;22.60;90.10
32400;DHT22;45045;45.440;9.178;2022-10-31T01:12:03;22.50;90.00
32400;DHT22;45045;45.440;9.178;2022-10-31T01:14:29;22.50;90.10
32400;DHT22;45045;45.440;9.178;2022-10-31T01:16:54;22.50;90.10
32400;DHT22;45045;45.440;9.178;2022-10-31T01:19:20;22.50;90.10
32400;DHT22;45045;45.440;9.178;2022-10-31T01:21:45;22.50;90.10
32400;DHT22;45045;45.440;9.178;2022-10-31T01:24:11;22.50;90.10
32400;DHT22;45045;45.440;9.178;2022-10-31T01:26:36;22.50;90.10
32400;DHT22;45045;45.440;9.178;2022-10-31T01:29:07;22.50;90.20
32400;DHT22;45045;45.440;9.178;2022-10-31T01:31:36;22.50;90.20
32400;DHT22;45045;45.440;9.178;2022-10-31T01:34:03;22.40;90.20
32400;DHT22;45045;45.440;9.178;2022-10-31T01:36:36;22.40;90.20
32400;DHT22;45045;45.440;9.178;2022-10-31T01:39:11;22.40;90.20
32400;DHT22;45045;45.440;9.178;2022-10-31T01:41:40;22.40;90.20
32400;DHT22;45045;45.440;9.178;2022-10-31T01:46:51;22.40;90.20
32400;DHT22;45045;45.440;9.178;2022-10-31T01:52:20;22.40;90.30
32400;DHT22;45045;45.440;9.178;2022-10-31T01:54:51;22.30;90.20
32400;DHT22;45045;45.440;9.178;2022-10-31T01:57:19;22.30;90.20
32400;DHT22;45045;45.440;9.178;2022-10-31T01:59:49;22.30;90.20
32400;DHT22;45045;45.440;9.178;2022-10-31T02:02:18;22.30;90.20
32400;DHT22;45045;45.440;9.178;2022-10-31T02:04:44;22.30;90.20
32400;DHT22;45045;45.440;9.178;2022-10-31T02:07:14;22.30;90.20
32400;DHT22;45045;45.440;9.178;2022-10-31T02:09:42;22.30;90.20
32400;DHT22;45045;45.440;9.178;2022-10-31T02:12:09;22.30;90.30
32400;DHT22;45045;45.440;9.178;2022-10-31T02:14:36;22.30;90.30
32400;DHT22;45045;45.440;9.178;2022-10-31T02:17:03;22.30;90.30
32400;DHT22;45045;45.440;9.178;2022-10-31T02:19:48;22.20;90.30
32400;DHT22;45045;45.440;9.178;2022-10-31T02:26:30;22.20;90.30
32400;DHT22;45045;45.440;9.178;2022-10-31T02:29:03;22.20;90.40
32400;DHT22;45045;45.440;9.178;2022-10-31T02:31:43;22.20;90.40
32400;DHT22;45045;45.440;9.178;2022-10-31T02:34:32;22.20;90.40
32400;DHT22;45045;45.440;9.178;2022-10-31T02:42:50;22.10;90.50
32400;DHT22;45045;45.440;9.178;2022-10-31T02:45:29;22.20;90.50
32400;DHT22;45045;45.440;9.178;2022-10-31T02:47:59;22.20;90.50
32400;DHT22;45045;45.440;9.178;2022-10-31T02:50:32;22.10;90.50
32400;DHT22;45045;45.440;9.178;2022-10-31T02:53:01;22.10;90.50
32400;DHT22;45045;45.440;9.178;2022-10-31T02:58:06;22.10;90.50
32400;DHT22;45045;45.440;9.178;2022-10-31T03:03:14;22.10;90.60
32400;DHT22;45045;45.440;9.178;2022-10-31T03:08:27;22.10;90.60
32400;DHT22;45045;45.440;9.178;2022-10-31T03:10:58;22.10;90.60
32400;DHT22;45045;45.440;9.178;2022-10-31T03:13:41;22.00;90.60
32400;DHT22;45045;45.440;9.178;2022-10-31T03:18:54;22.00;90.60
32400;DHT22;45045;45.440;9.178;2022-10-31T03:21:26;22.00;90.70
32400;DHT22;45045;45.440;9.178;2022-10-31T03:23:54;22.00;90.70
32400;DHT22;45045;45.440;9.178;2022-10-31T03:26:21;22.00;90.70
32400;DHT22;45045;45.440;9.178;2022-10-31T03:29:01;22.00;90.70
32400;DHT22;45045;45.440;9.178;2022-10-31T03:31:32;22.00;90.70
32400;DHT22;45045;45.440;9.178;2022-10-31T03:34:00;22.00;90.70
32400;DHT22;45045;45.440;9.178;2022-10-31T03:36:29;22.00;90.70
32400;DHT22;45045;45.440;9.178;2022-10-31T03:38:59;22.00;90.70
32400;DHT22;45045;45.440;9.178;2022-10-31T03:41:30;22.00;90.70
32400;DHT22;45045;45.440;9.178;2022-10-31T03:44:07;22.00;90.70
32400;DHT22;45045;45.440;9.178;2022-10-31T03:46:34;22.00;90.80
32400;DHT22;45045;45.440;9.178;2022-10-31T03:49:00;21.90;90.80
32400;DHT22;45045;45.440;9.178;2022-10-31T03:51:39;21.90;90.80
32400;DHT22;45045;45.440;9.178;2022-10-31T03:59:30;21.90;90.90
32400;DHT22;45045;45.440;9.178;2022-10-31T04:02:00;21.90;90.90
32400;DHT22;45045;45.440;9.178;2022-10-31T04:04:28;21.90;90.90
32400;DHT22;45045;45.440;9.178;2022-10-31T04:06:56;21.90;90.90
32400;DHT22;45045;45.440;9.178;2022-10-31T04:09:23;21.90;90.90
32400;DHT22;45045;45.440;9.178;2022-10-31T04:11:53;21.90;90.90
32400;DHT22;45045;45.440;9.178;2022-10-31T04:14:21;21.90;90.90
32400;DHT22;45045;45.440;9.178;2022-10-31T04:16:47;21.90;90.90
32400;DHT22;45045;45.440;9.178;2022-10-31T04:19:14;21.90;90.90
32400;DHT22;45045;45.440;9.178;2022-10-31T04:21:40;21.80;90.90
32400;DHT22;45045;45.440;9.178;2022-10-31T04:24:09;21.80;90.90
32400;DHT22;45045;45.440;9.178;2022-10-31T04:26:34;21.80;90.90
32400;DHT22;45045;45.440;9.178;2022-10-31T04:29:00;21.80;91.00
32400;DHT22;45045;45.440;9.178;2022-10-31T04:31:26;21.80;91.00
32400;DHT22;45045;45.440;9.178;2022-10-31T04:33:51;21.80;91.00
32400;DHT22;45045;45.440;9.178;2022-10-31T04:36:17;21.80;91.00
32400;DHT22;45045;45.440;9.178;2022-10-31T04:38:42;21.70;91.00
32400;DHT22;45045;45.440;9.178;2022-10-31T04:41:08;21.70;91.00
32400;DHT22;45045;45.440;9.178;2022-10-31T04:43:34;21.70;91.00
32400;DHT22;45045;45.440;9.178;2022-10-31T04:45:59;21.70;91.30
32400;DHT22;45045;45.440;9.178;2022-10-31T04:48:25;21.70;91.00
32400;DHT22;45045;45.440;9.178;2022-10-31T04:50:51;21.70;91.00
32400;DHT22;45045;45.440;9.178;2022-10-31T04:53:16;21.70;91.00
32400;DHT22;45045;45.440;9.178;2022-10-31T04:55:42;21.70;91.00
32400;DHT22;45045;45.440;9.178;2022-10-31T04:58:07;21.70;91.00
32400;DHT22;45045;45.440;9.178;2022-10-31T05:00:33;21.70;91.00
32400;DHT22;45045;45.440;9.178;2022-10-31T05:02:59;21.70;91.00
32400;DHT22;45045;45.440;9.178;2022-10-31T05:05:28;21.60;91.00
32400;DHT22;45045;45.440;9.178;2022-10-31T05:07:54;21.60;91.00
32400;DHT22;45045;45.440;9.178;2022-10-31T05:10:22;21.60;91.00
32400;DHT22;45045;45.440;9.178;2022-10-31T05:12:57;21.60;91.00
32400;DHT22;45045;45.440;9.178;2022-10-31T05:15:24;21.60;91.00
32400;DHT22;45045;45.440;9.178;2022-10-31T05:17:51;21.60;91.00
32400;DHT22;45045;45.440;9.178;2022-10-31T05:20:18;21.60;91.00
32400;DHT22;45045;45.440;9.178;2022-10-31T05:22:46;21.60;91.00
32400;DHT22;45045;45.440;9.178;2022-10-31T05:25:12;21.60;91.00
32400;DHT22;45045;45.440;9.178;2022-10-31T05:27:46;21.60;91.00
32400;DHT22;45045;45.440;9.178;2022-10-31T05:30:14;21.60;91.00
32400;DHT22;45045;45.440;9.178;2022-10-31T05:32:42;21.50;91.00
32400;DHT22;45045;45.440;9.178;2022-10-31T05:35:08;21.60;91.00
32400;DHT22;45045;45.440;9.178;2022-10-31T05:37:35;21.50;91.00
32400;DHT22;45045;45.440;9.178;2022-10-31T05:40:07;21.50;91.00
32400;DHT22;45045;45.440;9.178;2022-10-31T05:42:33;21.50;91.00
32400;DHT22;45045;45.440;9.178;2022-10-31T05:44:58;21.50;91.00
32400;DHT22;45045;45.440;9.178;2022-10-31T05:47:24;21.50;91.00
32400;DHT22;45045;45.440;9.178;2022-10-31T05:49:50;21.50;91.00
32400;DHT22;45045;45.440;9.178;2022-10-31T05:52:16;21.50;91.00
32400;DHT22;45045;45.440;9.178;2022-10-31T05:54:41;21.50;91.20
32400;DHT22;45045;45.440;9.178;2022-10-31T05:57:07;21.50;91.10
32400;DHT22;45045;45.440;9.178;2022-10-31T05:59:33;21.50;91.10
32400;DHT22;45045;45.440;9.178;2022-10-31T06:01:58;21.40;91.10
32400;DHT22;45045;45.440;9.178;2022-10-31T06:04:24;21.40;91.20
32400;DHT22;45045;45.440;9.178;2022-10-31T06:06:50;21.50;91.20
32400;DHT22;45045;45.440;9.178;2022-10-31T06:09:15;21.40;91.20
32400;DHT22;45045;45.440;9.178;2022-10-31T06:11:41;21.40;91.20
32400;DHT22;45045;45.440;9.178;2022-10-31T06:14:06;21.40;91.20
32400;DHT22;45045;45.440;9.178;2022-10-31T06:16:32;21.40;91.30
32400;DHT22;45045;45.440;9.178;2022-10-31T06:18:58;21.40;91.30
32400;DHT22;45045;45.440;9.178;2022-10-31T06:21:23;21.40;91.30
32400;DHT22;45045;45.440;9.178;2022-10-31T06:23:49;21.40;91.30
32400;DHT22;45045;45.440;9.178;2022-10-31T06:26:15;21.40;91.40
32400;DHT22;45045;45.440;9.178;2022-10-31T06:28:42;21.40;91.40
32400;DHT22;45045;45.440;9.178;2022-10-31T06:31:07;21.40;91.40
32400;DHT22;45045;45.440;9.178;2022-10-31T06:33:33;21.40;91.40
32400;DHT22;45045;45.440;9.178;2022-10-31T06:36:00;21.30;91.40
32400;DHT22;45045;45.440;9.178;2022-10-31T06:38:26;21.40;91.40
32400;DHT22;45045;45.440;9.178;2022-10-31T06:40:53;21.40;91.40
32400;DHT22;45045;45.440;9.178;2022-10-31T06:43:22;21.40;91.50
32400;DHT22;45045;45.440;9.178;2022-10-31T06:45:48;21.40;91.50
32400;DHT22;45045;45.440;9.178;2022-10-31T06:48:13;21.30;91.50
32400;DHT22;45045;45.440;9.178;2022-10-31T06:50:39;21.30;91.50
32400;DHT22;45045;45.440;9.178;2022-10-31T06:53:05;21.40;91.60
32400;DHT22;45045;45.440;9.178;2022-10-31T06:55:30;21.30;91.50
32400;DHT22;45045;45.440;9.178;2022-10-31T06:57:58;21.40;91.50
32400;DHT22;45045;45.440;9.178;2022-10-31T07:00:25;21.40;91.60
32400;DHT22;45045;45.440;9.178;2022-10-31T07:03:05;21.40;91.50
32400;DHT22;45045;45.440;9.178;2022-10-31T07:05:31;21.50;91.50
32400;DHT22;45045;45.440;9.178;2022-10-31T07:07:59;21.50;91.40
32400;DHT22;45045;45.440;9.178;2022-10-31T07:10:26;21.60;91.30
32400;DHT22;45045;45.440;9.178;2022-10-31T07:13:00;21.60;91.20
32400;DHT22;45045;45.440;9.178;2022-10-31T07:15:27;21.60;91.00
32400;DHT22;45045;45.440;9.178;2022-10-31T07:17:53;21.70;90.90
32400;DHT22;45045;45.440;9.178;2022-10-31T07:20:19;21.80;90.90
32400;DHT22;45045;45.440;9.178;2022-10-31T07:22:45;21.80;90.80
32400;DHT22;45045;45.440;9.178;2022-10-31T07:25:10;21.80;90.70
32400;DHT22;45045;45.440;9.178;2022-10-31T07:27:41;21.90;90.70
32400;DHT22;45045;45.440;9.178;2022-10-31T07:30:08;21.90;90.50
32400;DHT22;45045;45.440;9.178;2022-10-31T07:32:48;22.00;90.40
32400;DHT22;45045;45.440;9.178;2022-10-31T07:35:21;22.00;90.30
32400;DHT22;45045;45.440;9.178;2022-10-31T07:37:48;22.10;90.20
32400;DHT22;45045;45.440;9.178;2022-10-31T07:40:14;22.10;90.20
32400;DHT22;45045;45.440;9.178;2022-10-31T07:42:43;22.10;90.10
32400;DHT22;45045;45.440;9.178;2022-10-31T07:45:12;22.20;90.10
32400;DHT22;45045;45.440;9.178;2022-10-31T07:50:04;22.30;89.70
32400;DHT22;45045;45.440;9.178;2022-10-31T07:52:30;22.40;89.70
32400;DHT22;45045;45.440;9.178;2022-10-31T07:54:56;22.50;89.00
32400;DHT22;45045;45.440;9.178;2022-10-31T07:57:21;22.60;88.90
32400;DHT22;45045;45.440;9.178;2022-10-31T07:59:47;22.60;88.00
32400;DHT22;45045;45.440;9.178;2022-10-31T08:02:13;22.60;88.10
32400;DHT22;45045;45.440;9.178;2022-10-31T08:04:38;22.60;88.20
32400;DHT22;45045;45.440;9.178;2022-10-31T08:07:04;22.60;88.10
32400;DHT22;45045;45.440;9.178;2022-10-31T08:09:29;22.80;88.50
32400;DHT22;45045;45.440;9.178;2022-10-31T08:11:55;22.90;87.30
32400;DHT22;45045;45.440;9.178;2022-10-31T08:14:21;22.80;87.20
32400;DHT22;45045;45.440;9.178;2022-10-31T08:16:47;23.00;87.40
32400;DHT22;45045;45.440;9.178;2022-10-31T08:19:13;23.10;86.90
32400;DHT22;45045;45.440;9.178;2022-10-31T08:21:39;23.10;86.50
32400;DHT22;45045;45.440;9.178;2022-10-31T08:24:05;23.10;85.80
32400;DHT22;45045;45.440;9.178;2022-10-31T08:26:31;23.20;85.50
32400;DHT22;45045;45.440;9.178;2022-10-31T08:28:56;23.20;85.30
32400;DHT22;45045;45.440;9.178;2022-10-31T08:31:22;23.20;85.20
32400;DHT22;45045;45.440;9.178;2022-10-31T08:33:48;23.40;85.30
32400;DHT22;45045;45.440;9.178;2022-10-31T08:36:14;23.40;84.80
32400;DHT22;45045;45.440;9.178;2022-10-31T08:38:39;23.30;85.30
32400;DHT22;45045;45.440;9.178;2022-10-31T08:41:05;23.40;84.70
32400;DHT22;45045;45.440;9.178;2022-10-31T08:43:31;23.30;84.60
32400;DHT22;45045;45.440;9.178;2022-10-31T08:45:56;23.30;84.70
32400;DHT22;45045;45.440;9.178;2022-10-31T08:48:22;23.30;84.70
32400;DHT22;45045;45.440;9.178;2022-10-31T08:50:47;23.40;85.50
32400;DHT22;45045;45.440;9.178;2022-10-31T08:53:15;23.60;84.20
32400;DHT22;45045;45.440;9.178;2022-10-31T08:55:42;23.60;83.50
32400;DHT22;45045;45.440;9.178;2022-10-31T08:58:14;23.70;84.70
32400;DHT22;45045;45.440;9.178;2022-10-31T09:00:39;24.00;83.30
32400;DHT22;45045;45.440;9.178;2022-10-31T09:03:11;24.10;83.50
32400;DHT22;45045;45.440;9.178;2022-10-31T09:05:37;24.30;82.60
32400;DHT22;45045;45.440;9.178;2022-10-31T09:08:05;24.30;81.80
32400;DHT22;45045;45.440;9.178;2022-10-31T09:10:32;24.40;83.00
32400;DHT22;45045;45.440;9.178;2022-10-31T09:13:08;24.30;81.00
32400;DHT22;45045;45.440;9.178;2022-10-31T09:15:36;24.40;81.70
32400;DHT22;45045;45.440;9.178;2022-10-31T09:18:04;24.80;82.70
32400;DHT22;45045;45.440;9.178;2022-10-31T09:20:31;25.30;79.80
32400;DHT22;45045;45.440;9.178;2022-10-31T09:22:58;25.10;80.80
32400;DHT22;45045;45.440;9.178;2022-10-31T09:25:25;25.10;79.80
32400;DHT22;45045;45.440;9.178;2022-10-31T09:27:54;25.00;79.90
32400;DHT22;45045;45.440;9.178;2022-10-31T09:30:20;25.40;80.40
32400;DHT22;45045;45.440;9.178;2022-10-31T09:32:46;26.10;77.40
32400;DHT22;45045;45.440;9.178;2022-10-31T09:35:11;26.50;77.00
32400;DHT22;45045;45.440;9.178;2022-10-31T09:37:37;26.20;76.00
32400;DHT22;45045;45.440;9.178;2022-10-31T09:40:03;26.40;75.50
32400;DHT22;45045;45.440;9.178;2022-10-31T09:42:57;26.90;75.80
32400;DHT22;45045;45.440;9.178;2022-10-31T09:51:12;27.50;71.20
32400;DHT22;45045;45.440;9.178;2022-10-31T09:53:45;27.20;70.90
32400;DHT22;45045;45.440;9.178;2022-10-31T09:56:16;27.50;72.40
32400;DHT22;45045;45.440;9.178;2022-10-31T09:58:46;28.20;66.60
32400;DHT22;45045;45.440;9.178;2022-10-31T10:03:57;28.50;66.40
32400;DHT22;45045;45.440;9.178;2022-10-31T10:06:27;28.40;68.30
32400;DHT22;45045;45.440;9.178;2022-10-31T10:08:54;28.60;67.60
32400;DHT22;45045;45.440;9.178;2022-10-31T10:11:54;28.20;67.60
32400;DHT22;45045;45.440;9.178;2022-10-31T10:17:08;28.30;67.40
32400;DHT22;45045;45.440;9.178;2022-10-31T10:25:22;29.50;64.60
32400;DHT22;45045;45.440;9.178;2022-10-31T10:30:42;29.80;62.10
32400;DHT22;45045;45.440;9.178;2022-10-31T10:33:22;29.80;62.10
32400;DHT22;45045;45.440;9.178;2022-10-31T10:35:53;29.90;60.70
32400;DHT22;45045;45.440;9.178;2022-10-31T10:38:27;30.00;61.20
32400;DHT22;45045;45.440;9.178;2022-10-31T10:40:55;29.90;60.00
32400;DHT22;45045;45.440;9.178;2022-10-31T10:43:34;29.80;61.50
32400;DHT22;45045;45.440;9.178;2022-10-31T10:57:38;30.50;59.90
32400;DHT22;45045;45.440;9.178;2022-10-31T11:00:21;30.90;58.30
32400;DHT22;45045;45.440;9.178;2022-10-31T11:02:47;31.20;57.00
32400;DHT22;45045;45.440;9.178;2022-10-31T11:07:59;31.60;56.90
32400;DHT22;45045;45.440;9.178;2022-10-31T11:10:25;31.60;55.40
32400;DHT22;45045;45.440;9.178;2022-10-31T11:15:59;32.10;54.40
32400;DHT22;45045;45.440;9.178;2022-10-31T11:18:29;32.30;54.10
32400;DHT22;45045;45.440;9.178;2022-10-31T11:20:57;32.30;53.00
32400;DHT22;45045;45.440;9.178;2022-10-31T11:23:25;31.90;52.70
32400;DHT22;45045;45.440;9.178;2022-10-31T11:25:59;32.20;52.90
32400;DHT22;45045;45.440;9.178;2022-10-31T11:28:27;32.20;53.00
32400;DHT22;45045;45.440;9.178;2022-10-31T11:31:07;32.40;51.90
32400;DHT22;45045;45.440;9.178;2022-10-31T11:33:39;32.00;51.00
32400;DHT22;45045;45.440;9.178;2022-10-31T11:36:23;31.80;52.40
32400;DHT22;45045;45.440;9.178;2022-10-31T11:38:50;31.90;51.70
32400;DHT22;45045;45.440;9.178;2022-10-31T11:41:50;31.80;52.50
32400;DHT22;45045;45.440;9.178;2022-10-31T11:44:17;31.40;53.20
32400;DHT22;45045;45.440;9.178;2022-10-31T11:46:47;31.30;53.70
32400;DHT22;45045;45.440;9.178;2022-10-31T11:49:36;31.20;54.70
32400;DHT22;45045;45.440;9.178;2022-10-31T11:52:16;31.10;53.80
32400;DHT22;45045;45.440;9.178;2022-10-31T12:02:46;31.50;53.40
32400;DHT22;45045;45.440;9.178;2022-10-31T12:05:18;31.40;53.50
32400;DHT22;45045;45.440;9.178;2022-10-31T12:07:45;31.10;53.70
32400;DHT22;45045;45.440;9.178;2022-10-31T12:10:11;30.60;53.70
32400;DHT22;45045;45.440;9.178;2022-10-31T12:15:33;30.70;53.70
32400;DHT22;45045;45.440;9.178;2022-10-31T12:18:21;30.60;54.20
32400;DHT22;45045;45.440;9.178;2022-10-31T12:29:35;30.40;55.20
32400;DHT22;45045;45.440;9.178;2022-10-31T12:34:49;30.40;55.00
32400;DHT22;45045;45.440;9.178;2022-10-31T12:37:44;30.60;54.90
32400;DHT22;45045;45.440;9.178;2022-10-31T12:43:26;30.60;55.10
32400;DHT22;45045;45.440;9.178;2022-10-31T12:45:58;30.60;55.00
32400;DHT22;45045;45.440;9.178;2022-10-31T12:59:21;29.70;57.00
32400;DHT22;45045;45.440;9.178;2022-10-31T13:01:55;29.60;57.30
32400;DHT22;45045;45.440;9.178;2022-10-31T13:04:35;29.70;56.60
32400;DHT22;45045;45.440;9.178;2022-10-31T13:07:05;29.50;56.30
32400;DHT22;45045;45.440;9.178;2022-10-31T13:09:41;29.70;57.10
32400;DHT22;45045;45.440;9.178;2022-10-31T13:12:14;29.70;55.30
32400;DHT22;45045;45.440;9.178;2022-10-31T13:15:05;29.30;56.00
32400;DHT22;45045;45.440;9.178;2022-10-31T13:17:41;29.50;55.60
32400;DHT22;45045;45.440;9.178;2022-10-31T13:20:19;29.60;55.80
32400;DHT22;45045;45.440;9.178;2022-10-31T13:22:50;29.60;56.10
32400;DHT22;45045;45.440;9.178;2022-10-31T13:25:24;29.70;54.00
32400;DHT22;45045;45.440;9.178;2022-10-31T13:28:03;29.40;54.30
32400;DHT22;45045;45.440;9.178;2022-10-31T13:30:33;28.90;54.70
32400;DHT22;45045;45.440;9.178;2022-10-31T13:35:55;28.90;55.20
32400;DHT22;45045;45.440;9.178;2022-10-31T13:44:20;29.20;53.20
32400;DHT22;45045;45.440;9.178;2022-10-31T13:46:47;29.00;53.20
32400;DHT22;45045;45.440;9.178;2022-10-31T13:54:33;29.10;53.80
32400;DHT22;45045;45.440;9.178;2022-10-31T13:56:59;28.90;52.80
32400;DHT22;45045;45.440;9.178;2022-10-31T13:59:29;28.80;53.50
32400;DHT22;45045;45.440;9.178;2022-10-31T14:02:01;29.10;54.10
32400;DHT22;45045;45.440;9.178;2022-10-31T14:12:08;29.10;52.80
32400;DHT22;45045;45.440;9.178;2022-10-31T14:14:47;29.20;52.80
32400;DHT22;45045;45.440;9.178;2022-10-31T14:17:21;29.20;53.40
32400;DHT22;45045;45.440;9.178;2022-10-31T14:22:37;29.10;53.80
32400;DHT22;45045;45.440;9.178;2022-10-31T14:27:53;28.70;54.80
32400;DHT22;45045;45.440;9.178;2022-10-31T14:30:22;28.60;54.60
32400;DHT22;45045;45.440;9.178;2022-10-31T14:32:52;28.80;54.70
32400;DHT22;45045;45.440;9.178;2022-10-31T14:35:20;28.50;54.30
32400;DHT22;45045;45.440;9.178;2022-10-31T14:38:18;28.10;55.00
32400;DHT22;45045;45.440;9.178;2022-10-31T14:41:13;27.90;55.30
32400;DHT22;45045;45.440;9.178;2022-10-31T14:44:23;27.90;55.70
32400;DHT22;45045;45.440;9.178;2022-10-31T14:47:21;28.20;55.50
32400;DHT22;45045;45.440;9.178;2022-10-31T14:52:49;27.60;56.20
32400;DHT22;45045;45.440;9.178;2022-10-31T14:55:16;27.40;56.50
32400;DHT22;45045;45.440;9.178;2022-10-31T14:58:04;27.40;57.10
32400;DHT22;45045;45.440;9.178;2022-10-31T15:00:32;27.20;57.20
32400;DHT22;45045;45.440;9.178;2022-10-31T15:03:09;27.10;57.70
32400;DHT22;45045;45.440;9.178;2022-10-31T15:05:46;27.10;57.90
32400;DHT22;45045;45.440;9.178;2022-10-31T15:08:34;27.30;57.70
32400;DHT22;45045;45.440;9.178;2022-10-31T15:11:13;27.60;57.00
32400;DHT22;45045;45.440;9.178;2022-10-31T15:13:53;27.80;56.90
32400;DHT22;45045;45.440;9.178;2022-10-31T15:16:39;27.80;57.00
32400;DHT22;45045;45.440;9.178;2022-10-31T15:19:10;27.70;56.90
32400;DHT22;45045;45.440;9.178;2022-10-31T15:21:43;27.60;57.20
32400;DHT22;45045;45.440;9.178;2022-10-31T15:24:12;27.30;57.80
32400;DHT22;45045;45.440;9.178;2022-10-31T15:26:40;27.10;58.40
32400;DHT22;45045;45.440;9.178;2022-10-31T15:29:13;27.10;58.50
32400;DHT22;45045;45.440;9.178;2022-10-31T15:31:49;27.00;58.60
32400;DHT22;45045;45.440;9.178;2022-10-31T15:36:56;27.30;57.90
32400;DHT22;45045;45.440;9.178;2022-10-31T15:39:22;27.30;58.30
32400;DHT22;45045;45.440;9.178;2022-10-31T15:41:57;27.20;58.20
32400;DHT22;45045;45.440;9.178;2022-10-31T15:44:42;27.20;58.20
32400;DHT22;45045;45.440;9.178;2022-10-31T15:47:29;27.10;58.50
32400;DHT22;45045;45.440;9.178;2022-10-31T15:49:57;27.30;58.20
32400;DHT22;45045;45.440;9.178;2022-10-31T15:55:46;27.40;57.60
32400;DHT22;45045;45.440;9.178;2022-10-31T15:58:03;27.40;57.60
32400;DHT22;45045;45.440;9.178;2022-10-31T16:00:34;27.30;57.80
32400;DHT22;45045;45.440;9.178;2022-10-31T16:05:52;27.40;57.30
32400;DHT22;45045;45.440;9.178;2022-10-31T16:13:34;27.20;59.10
32400;DHT22;45045;45.440;9.178;2022-10-31T16:16:11;27.10;59.10
32400;DHT22;45045;45.440;9.178;2022-10-31T16:18:39;27.10;59.40
32400;DHT22;45045;45.440;9.178;2022-10-31T16:21:06;27.10;59.30
32400;DHT22;45045;45.440;9.178;2022-10-31T16:23:33;27.10;58.90
32400;DHT22;45045;45.440;9.178;2022-10-31T16:25:59;27.10;58.90
32400;DHT22;45045;45.440;9.178;2022-10-31T16:28:27;27.10;58.90
32400;DHT22;45045;45.440;9.178;2022-10-31T16:30:54;27.10;59.10
32400;DHT22;45045;45.440;9.178;2022-10-31T16:35:51;27.00;59.50
32400;DHT22;45045;45.440;9.178;2022-10-31T16:38:17;26.90;60.00
32400;DHT22;45045;45.440;9.178;2022-10-31T16:40:44;26.80;60.10
32400;DHT22;45045;45.440;9.178;2022-10-31T16:43:15;26.90;60.00
32400;DHT22;45045;45.440;9.178;2022-10-31T16:45:44;26.80;60.20
32400;DHT22;45045;45.440;9.178;2022-10-31T16:48:17;26.80;60.30
32400;DHT22;45045;45.440;9.178;2022-10-31T16:50:45;26.80;60.40
32400;DHT22;45045;45.440;9.178;2022-10-31T16:53:12;26.70;60.60
32400;DHT22;45045;45.440;9.178;2022-10-31T16:55:57;26.70;60.80
32400;DHT22;45045;45.440;9.178;2022-10-31T16:58:29;26.70;61.10
32400;DHT22;45045;45.440;9.178;2022-10-31T17:00:56;26.60;61.20
32400;DHT22;45045;45.440;9.178;2022-10-31T17:03:22;26.60;61.30
32400;DHT22;45045;45.440;9.178;2022-10-31T17:05:48;26.50;61.60
32400;DHT22;45045;45.440;9.178;2022-10-31T17:08:14;26.50;61.90
32400;DHT22;45045;45.440;9.178;2022-10-31T17:10:41;26.50;62.00
32400;DHT22;45045;45.440;9.178;2022-10-31T17:13:15;26.40;62.70
32400;DHT22;45045;45.440;9.178;2022-10-31T17:15:45;26.40;63.00
32400;DHT22;45045;45.440;9.178;2022-10-31T17:18:13;26.30;62.80
32400;DHT22;45045;45.440;9.178;2022-10-31T17:20:39;26.30;63.80
32400;DHT22;45045;45.440;9.178;2022-10-31T17:23:04;26.20;64.60
32400;DHT22;45045;45.440;9.178;2022-10-31T17:25:30;26.20;64.10
32400;DHT22;45045;45.440;9.178;2022-10-31T17:27:57;26.10;65.50
32400;DHT22;45045;45.440;9.178;2022-10-31T17:30:23;26.10;65.90
32400;DHT22;45045;45.440;9.178;2022-10-31T17:32:49;26.00;67.20
32400;DHT22;45045;45.440;9.178;2022-10-31T17:35:16;26.00;66.50
32400;DHT22;45045;45.440;9.178;2022-10-31T17:37:43;26.00;66.20
32400;DHT22;45045;45.440;9.178;2022-10-31T17:40:10;26.00;67.10
32400;DHT22;45045;45.440;9.178;2022-10-31T17:42:36;25.80;67.70
32400;DHT22;45045;45.440;9.178;2022-10-31T17:45:02;25.70;68.30
32400;DHT22;45045;45.440;9.178;2022-10-31T17:47:28;25.70;68.60
32400;DHT22;45045;45.440;9.178;2022-10-31T17:49:54;25.70;68.90
32400;DHT22;45045;45.440;9.178;2022-10-31T17:52:20;25.60;69.00
32400;DHT22;45045;45.440;9.178;2022-10-31T17:54:45;25.70;68.40
32400;DHT22;45045;45.440;9.178;2022-10-31T17:57:11;25.70;68.90
32400;DHT22;45045;45.440;9.178;2022-10-31T17:59:37;25.60;69.30
32400;DHT22;45045;45.440;9.178;2022-10-31T18:02:02;25.60;68.50
32400;DHT22;45045;45.440;9.178;2022-10-31T18:04:34;25.60;67.60
32400;DHT22;45045;45.440;9.178;2022-10-31T18:07:00;25.60;68.90
32400;DHT22;45045;45.440;9.178;2022-10-31T18:09:25;25.50;69.20
32400;DHT22;45045;45.440;9.178;2022-10-31T18:11:51;25.50;69.30
32400;DHT22;45045;45.440;9.178;2022-10-31T18:14:19;25.40;69.90
32400;DHT22;45045;45.440;9.178;2022-10-31T18:16:45;25.40;70.60
32400;DHT22;45045;45.440;9.178;2022-10-31T18:19:12;25.30;71.00
32400;DHT22;45045;45.440;9.178;2022-10-31T18:21:41;25.30;71.90